createdAt,value
2022-12-18T00:00:09.815Z,-5.49
2022-12-18T00:05:40.333Z,-5.36
2022-12-18T00:11:12.361Z,-5.52
2022-12-18T00:16:37.119Z,-5.41
2022-12-18T00:22:02.296Z,-5.39
2022-12-18T00:27:24.115Z,-5.39
2022-12-18T00:32:46.729Z,-5.42
2022-12-18T00:38:09.055Z,-5.45
2022-12-18T00:43:31.380Z,-5.38
2022-12-18T00:48:53.761Z,-5.41
2022-12-18T00:54:15.875Z,-5.37
2022-12-18T00:59:37.676Z,-5.56
2022-12-18T01:04:59.847Z,-5.43
2022-12-18T01:10:22.498Z,-5.49
2022-12-18T01:15:53.391Z,-5.51
2022-12-18T01:21:17.987Z,-5.50
2022-12-18T01:26:40.242Z,-5.48
2022-12-18T01:32:04.827Z,-5.58
2022-12-18T01:37:26.915Z,-5.54
2022-12-18T01:42:55.498Z,-5.50
2022-12-18T01:48:17.996Z,-5.51
2022-12-18T01:53:42.255Z,-5.47
2022-12-18T01:59:08.159Z,-5.49
2022-12-18T02:04:30.185Z,-5.59
2022-12-18T02:10:03.895Z,-5.52
2022-12-18T02:15:43.321Z,-5.54
2022-12-18T02:21:34.786Z,-5.53
2022-12-18T02:27:02.497Z,-5.54
2022-12-18T02:32:32.147Z,-5.54
2022-12-18T02:37:55.874Z,-5.58
2022-12-18T02:43:18.191Z,-5.69
2022-12-18T02:48:40.863Z,-5.68
2022-12-18T02:54:38.374Z,-5.69
2022-12-18T03:00:36.989Z,-5.71
2022-12-18T03:06:06.182Z,-5.73
2022-12-18T03:11:51.135Z,-5.75
2022-12-18T03:17:19.234Z,-5.73
2022-12-18T03:22:44.815Z,-5.80
2022-12-18T03:28:14.901Z,-5.91
2022-12-18T03:33:48.098Z,-5.89
2022-12-18T03:39:11.147Z,-6.01
2022-12-18T03:44:42.805Z,-5.96
2022-12-18T03:50:21.614Z,-5.97
2022-12-18T03:55:47.192Z,-6.08
2022-12-18T04:01:12.658Z,-6.06
2022-12-18T04:06:37.225Z,-5.92
2022-12-18T04:12:00.455Z,-6.03
2022-12-18T04:17:23.477Z,-5.94
2022-12-18T04:22:45.605Z,-5.89
2022-12-18T04:28:09.198Z,-5.97
2022-12-18T04:33:34.022Z,-5.96
2022-12-18T04:38:57.464Z,-5.96
2022-12-18T04:44:20.164Z,-5.93
2022-12-18T04:49:44.725Z,-5.96
2022-12-18T04:55:07.296Z,-6.00
2022-12-18T05:00:29.257Z,-6.01
2022-12-18T05:05:52.686Z,-6.08
2022-12-18T05:11:19.341Z,-6.03
2022-12-18T05:16:41.481Z,-6.10
2022-12-18T05:27:51.123Z,-6.17
2022-12-18T05:33:32.344Z,-6.27
2022-12-18T05:38:59.497Z,-6.06
2022-12-18T05:44:21.172Z,-6.25
2022-12-18T05:49:45.722Z,-6.09
2022-12-18T05:55:07.965Z,-6.23
2022-12-18T06:00:30.770Z,-6.31
2022-12-18T06:05:55.515Z,-6.29
2022-12-18T06:11:21.077Z,-6.30
2022-12-18T06:16:43.154Z,-6.33
2022-12-18T06:22:05.230Z,-6.14
2022-12-18T06:27:27.225Z,-6.13
2022-12-18T06:32:54.692Z,-6.33
2022-12-18T06:38:18.270Z,-6.20
2022-12-18T06:43:41.223Z,-6.26
2022-12-18T06:49:03.439Z,-6.29
2022-12-18T06:54:24.976Z,-6.27
2022-12-18T06:59:46.883Z,-6.19
2022-12-18T07:05:11.105Z,-6.20
2022-12-18T07:10:33.185Z,-6.32
2022-12-18T07:15:57.901Z,-6.26
2022-12-18T07:27:21.119Z,-6.33
2022-12-18T07:32:46.276Z,-6.34
2022-12-18T07:38:09.566Z,-6.29
2022-12-18T07:43:36.634Z,-6.12
2022-12-18T07:48:59.524Z,-6.25
2022-12-18T07:54:24.377Z,-6.15
2022-12-18T07:59:46.388Z,-6.18
2022-12-18T08:05:08.834Z,-6.19
2022-12-18T08:10:31.121Z,-6.02
2022-12-18T08:16:00.795Z,-6.14
2022-12-18T08:21:39.916Z,-6.00
2022-12-18T08:32:43.763Z,-5.89
2022-12-18T08:38:05.895Z,-5.79
2022-12-18T08:43:46.845Z,-5.81
2022-12-18T08:49:10.763Z,-5.70
2022-12-18T08:54:32.639Z,-5.65
2022-12-18T08:59:54.343Z,-5.60
2022-12-18T09:05:16.404Z,-5.51
2022-12-18T09:10:44.944Z,-5.52
2022-12-18T09:16:07.530Z,-5.48
2022-12-18T09:27:20.204Z,-5.50
2022-12-18T09:32:44.170Z,-5.32
2022-12-18T09:38:06.996Z,-5.35
2022-12-18T09:43:57.306Z,-5.23
2022-12-18T09:49:24.127Z,-5.31
2022-12-18T09:54:55.356Z,-5.34
2022-12-18T10:00:22.060Z,-5.27
2022-12-18T10:05:50.235Z,-5.27
2022-12-18T10:11:26.446Z,-5.25
2022-12-18T10:17:23.987Z,-5.24
2022-12-18T10:23:03.768Z,-5.21
2022-12-18T10:28:27.459Z,-5.26
2022-12-18T10:33:49.603Z,-5.29
2022-12-18T10:39:29.465Z,-5.30
2022-12-18T10:45:04.284Z,-5.35
2022-12-18T10:50:40.935Z,-5.24
2022-12-18T10:56:11.324Z,-5.31
2022-12-18T11:01:59.628Z,-5.32
2022-12-18T11:07:21.740Z,-5.39
2022-12-18T11:12:43.943Z,-5.36
2022-12-18T11:18:06.134Z,-5.41
2022-12-18T11:23:29.720Z,-5.43
2022-12-18T11:28:54.455Z,-5.49
2022-12-18T11:34:30.140Z,-5.40
2022-12-18T11:40:01.386Z,-5.49
2022-12-18T11:46:07.351Z,-5.56
2022-12-18T11:51:43.495Z,-5.65
2022-12-18T11:57:11.856Z,-5.71
2022-12-18T12:02:58.073Z,-5.76
2022-12-18T12:08:32.061Z,-5.81
2022-12-18T12:14:17.429Z,-5.89
2022-12-18T12:20:10.389Z,-5.89
2022-12-18T12:25:52.914Z,-6.05
2022-12-18T12:31:31.321Z,-6.05
2022-12-18T12:37:14.058Z,-5.97
2022-12-18T12:43:13.630Z,-6.20
2022-12-18T12:48:58.645Z,-6.18
2022-12-18T12:54:27.886Z,-6.09
2022-12-18T13:00:20.757Z,-6.14
2022-12-18T13:06:00.402Z,-6.22
2022-12-18T13:13:45.003Z,-6.16
2022-12-18T13:17:34.916Z,-6.40
2022-12-18T13:23:04.165Z,-6.43
2022-12-18T13:28:35.475Z,-6.25
2022-12-18T13:34:27.793Z,-6.27
2022-12-18T13:39:51.046Z,-6.36
2022-12-18T13:45:51.034Z,-6.30
2022-12-18T13:51:20.577Z,-6.29
2022-12-18T13:56:48.904Z,-6.30
2022-12-18T14:02:18.566Z,-6.33
2022-12-18T14:07:42.640Z,-6.34
2022-12-18T14:13:11.302Z,-6.33
2022-12-18T14:19:10.556Z,-6.38
2022-12-18T14:24:37.395Z,-6.42
2022-12-18T14:29:59.728Z,-6.49
2022-12-18T14:35:21.681Z,-6.38
2022-12-18T14:40:46.819Z,-6.45
2022-12-18T14:46:34.395Z,-6.46
2022-12-18T14:52:00.746Z,-6.51
2022-12-18T14:57:26.693Z,-6.62
2022-12-18T15:02:57.776Z,-6.63
2022-12-18T15:08:37.351Z,-6.61
2022-12-18T15:14:00.267Z,-6.60
2022-12-18T15:19:25.725Z,-6.67
2022-12-18T15:24:48.225Z,-6.65
2022-12-18T15:30:10.116Z,-6.63
2022-12-18T15:35:32.097Z,-6.72
2022-12-18T15:40:55.386Z,-6.71
2022-12-18T15:46:22.654Z,-6.66
2022-12-18T15:51:44.843Z,-6.72
2022-12-18T15:57:24.713Z,-6.74
2022-12-18T16:02:47.079Z,-6.77
2022-12-18T16:08:09.330Z,-6.85
2022-12-18T16:13:34.050Z,-6.80
2022-12-18T16:18:56.638Z,-6.81
2022-12-18T16:24:24.275Z,-6.90
2022-12-18T16:29:46.268Z,-6.89
2022-12-18T16:35:10.145Z,-6.95
2022-12-18T16:40:33.745Z,-7.03
2022-12-18T16:45:58.685Z,-7.13
2022-12-18T16:51:20.705Z,-7.12
2022-12-18T16:56:43.521Z,-7.21
2022-12-18T17:02:06.314Z,-7.17
2022-12-18T17:07:30.336Z,-7.28
2022-12-18T17:12:52.248Z,-7.34
2022-12-18T17:18:14.355Z,-7.30
2022-12-18T17:23:37.428Z,-7.44
2022-12-18T17:29:00.704Z,-7.46
2022-12-18T17:34:25.716Z,-7.52
2022-12-18T17:39:47.786Z,-7.67
2022-12-18T17:45:10.206Z,-7.65
2022-12-18T17:50:34.606Z,-7.83
2022-12-18T17:55:58.076Z,-7.85
2022-12-18T18:01:23.698Z,-7.88
2022-12-18T18:06:45.927Z,-8.04
2022-12-18T18:12:26.705Z,-7.98
2022-12-18T18:17:52.029Z,-7.94
2022-12-18T18:23:17.630Z,-8.21
2022-12-18T18:28:40.540Z,-8.38
2022-12-18T18:34:11.971Z,-8.17
2022-12-18T18:39:40.311Z,-8.29
2022-12-18T18:45:04.681Z,-8.48
2022-12-18T18:50:33.154Z,-8.46
2022-12-18T18:56:45.351Z,-8.54
2022-12-18T19:01:55.672Z,-8.70
2022-12-18T19:07:30.347Z,-8.82
2022-12-18T19:13:14.716Z,-8.96
2022-12-18T19:18:42.327Z,-8.97
2022-12-18T19:24:14.909Z,-8.99
2022-12-18T19:29:39.931Z,-9.12
2022-12-18T19:35:08.939Z,-9.22
2022-12-18T19:40:32.602Z,-9.21
2022-12-18T19:46:00.039Z,-9.28
2022-12-18T19:51:26.259Z,-9.38
2022-12-18T19:56:50.147Z,-9.44
2022-12-18T20:02:17.377Z,-9.58
2022-12-18T20:07:42.530Z,-9.54
2022-12-18T20:13:13.979Z,-9.52
2022-12-18T20:18:42.859Z,-9.61
2022-12-18T20:24:07.820Z,-9.48
2022-12-18T20:29:32.249Z,-9.64
2022-12-18T20:34:55.279Z,-9.78
2022-12-18T20:40:29.035Z,-9.70
2022-12-18T20:46:03.572Z,-9.64
2022-12-18T20:51:31.117Z,-9.79
2022-12-18T20:56:56.728Z,-9.86
2022-12-18T21:02:24.016Z,-9.73
2022-12-18T21:07:59.701Z,-10.00
2022-12-18T21:13:23.170Z,-9.91
2022-12-18T21:18:47.118Z,-9.93
2022-12-18T21:24:29.058Z,-9.87
2022-12-18T21:29:55.518Z,-10.03
2022-12-18T21:35:19.008Z,-10.22
2022-12-18T21:40:43.859Z,-10.43
2022-12-18T21:46:07.779Z,-10.64
2022-12-18T21:51:30.049Z,-10.70
2022-12-18T21:56:57.869Z,-10.78
2022-12-18T22:02:23.098Z,-10.69
2022-12-18T22:07:45.239Z,-10.80
2022-12-18T22:13:08.788Z,-10.74
2022-12-18T22:18:30.468Z,-10.97
2022-12-18T22:24:03.779Z,-10.91
2022-12-18T22:29:45.058Z,-11.01
2022-12-18T22:35:14.161Z,-11.13
2022-12-18T22:40:37.997Z,-11.34
2022-12-18T22:46:04.986Z,-11.50
2022-12-18T22:51:27.490Z,-11.75
2022-12-18T22:56:52.189Z,-12.00
2022-12-18T23:02:14.131Z,-12.00
2022-12-18T23:07:36.039Z,-12.13
2022-12-18T23:12:57.919Z,-12.18
2022-12-18T23:18:20.119Z,-12.37
2022-12-18T23:23:44.518Z,-12.47
2022-12-18T23:29:06.559Z,-12.59
2022-12-18T23:34:28.427Z,-12.66
2022-12-18T23:39:50.600Z,-12.77
2022-12-18T23:45:16.595Z,-12.73
2022-12-18T23:50:39.869Z,-12.75
2022-12-18T23:56:02.284Z,-12.79
